Time;durP1;ratioP1;P1;durP2;ratioP2;P2;SDS_P1;SDS_P2;PMS_P1;PMS_P2;Temp;Humidity;BMP_temperature;BMP_pressure;BME280_temperature;BME280_humidity;BME280_pressure;Samples;Min_cycle;Max_cycle;Signal;HPM_P1;HPM_P2
2024/04/26 00:00:19;;;;;;;5.72;4.88;;;;;;;-0.32;82.93;99356.75;2682014;26;20081;-75
2024/04/26 00:01:33;;;;;;;7.38;6.22;;;;;;;-0.33;82.82;99367.88;2678724;26;20001;-75
2024/04/26 00:02:46;;;;;;;8.82;7.13;;;;;;;-0.32;82.81;99364.44;2681221;26;19997;-75
2024/04/26 00:03:59;;;;;;;8.50;5.05;;;;;;;-0.31;82.74;99370.44;2677463;26;20002;-75
2024/04/26 00:05:13;;;;;;;7.00;5.63;;;;;;;-0.32;83.09;99363.59;2677991;26;19998;-76
2024/04/26 00:06:26;;;;;;;6.40;4.90;;;;;;;-0.38;82.88;99361.81;2683250;26;22225;-76
2024/04/26 00:07:39;;;;;;;6.13;5.22;;;;;;;-0.40;83.07;99365.19;2681810;26;20411;-76
2024/04/26 00:08:52;;;;;;;8.25;5.82;;;;;;;-0.43;82.83;99358.31;2690817;26;20005;-75
2024/04/26 00:10:06;;;;;;;5.28;4.78;;;;;;;-0.47;82.96;99359.94;2682039;26;20013;-75
2024/04/26 00:11:19;;;;;;;10.05;8.75;;;;;;;-0.48;83.19;99363.38;2672735;26;20004;-76
2024/04/26 00:12:32;;;;;;;6.60;5.40;;;;;;;-0.50;82.51;99359.91;2666725;26;20447;-76
2024/04/26 00:13:45;;;;;;;5.97;5.38;;;;;;;-0.53;83.11;99344.50;2676554;26;20032;-76
2024/04/26 00:14:59;;;;;;;5.68;4.85;;;;;;;-0.52;83.14;99355.59;2676557;26;20020;-76
2024/04/26 00:16:12;;;;;;;6.05;5.45;;;;;;;-0.51;83.32;99345.38;2676859;26;20467;-76
2024/04/26 00:17:25;;;;;;;6.63;5.95;;;;;;;-0.49;83.05;99348.84;2679450;26;20477;-76
2024/04/26 00:18:38;;;;;;;6.90;5.82;;;;;;;-0.47;83.32;99344.56;2673926;26;20500;-75
2024/04/26 00:19:52;;;;;;;7.45;5.53;;;;;;;-0.44;83.35;99343.75;2679859;26;20132;-75
2024/04/26 00:21:05;;;;;;;5.90;5.40;;;;;;;-0.42;83.26;99343.78;2676598;26;20010;-76
2024/04/26 00:22:18;;;;;;;12.98;6.60;;;;;;;-0.41;83.26;99335.25;2675849;26;20005;-75
2024/04/26 00:23:31;;;;;;;7.53;5.68;;;;;;;-0.41;83.30;99328.44;2676257;26;20017;-76
2024/04/26 00:24:45;;;;;;;9.73;6.20;;;;;;;-0.40;83.16;99334.44;2671633;26;20013;-76
2024/04/26 00:25:58;;;;;;;6.45;5.78;;;;;;;-0.42;83.53;99324.16;2671824;26;20001;-76
2024/04/26 00:27:12;;;;;;;6.13;5.53;;;;;;;-0.39;83.45;99331.00;2672553;26;20019;-76
2024/04/26 00:28:25;;;;;;;10.40;5.60;;;;;;;-0.40;83.08;99324.19;2716059;21;20932;-78
2024/04/26 00:29:38;;;;;;;6.65;5.80;;;;;;;-0.40;83.27;99327.59;2711659;26;20218;-78
2024/04/26 00:30:51;;;;;;;7.65;5.85;;;;;;;-0.39;83.43;99336.13;2706259;26;19996;-79
2024/04/26 00:32:05;;;;;;;7.35;5.57;;;;;;;-0.37;83.44;99339.59;2710695;26;20010;-78
2024/04/26 00:33:18;;;;;;;6.43;5.65;;;;;;;-0.35;83.30;99337.91;2723232;26;19995;-79
2024/04/26 00:34:31;;;;;;;9.25;5.45;;;;;;;-0.38;83.37;99333.63;2724964;26;20010;-81
2024/04/26 00:35:46;;;;;;;7.65;6.70;;;;;;;-0.38;83.43;99331.06;2709546;26;19992;-79
2024/04/26 00:37:00;;;;;;;11.40;5.32;;;;;;;-0.39;83.37;99331.00;2724953;26;20002;-78
2024/04/26 00:38:13;;;;;;;7.15;5.03;;;;;;;-0.39;83.25;99320.75;2717907;26;20215;-81
2024/04/26 00:39:27;;;;;;;5.60;5.07;;;;;;;-0.40;83.29;99316.50;2706368;26;20222;-79
2024/04/26 00:40:40;;;;;;;6.20;5.55;;;;;;;-0.41;83.32;99325.88;2705903;26;20770;-79
2024/04/26 00:41:53;;;;;;;6.47;5.78;;;;;;;-0.42;83.53;99331.84;2707239;26;20414;-78
2024/04/26 00:43:06;;;;;;;6.35;5.72;;;;;;;-0.42;83.48;99334.41;2707565;26;20008;-79
2024/04/26 00:44:20;;;;;;;13.55;8.32;;;;;;;-0.43;83.16;99339.53;2680893;26;20018;-79
2024/04/26 00:45:33;;;;;;;7.32;5.32;;;;;;;-0.46;83.50;99330.94;2677672;26;20011;-78
2024/04/26 00:46:48;;;;;;;7.53;5.45;;;;;;;-0.48;83.30;99324.06;2708097;26;20441;-79
2024/04/26 00:48:01;;;;;;;8.05;5.47;;;;;;;-0.49;83.44;99330.91;2706810;26;19996;-78
2024/04/26 00:49:15;;;;;;;6.68;5.63;;;;;;;-0.48;83.27;99332.59;2694590;26;20222;-79
2024/04/26 00:50:28;;;;;;;7.25;5.38;;;;;;;-0.50;83.38;99329.16;2695040;26;20074;-79
2024/04/26 00:51:47;;;;;;;6.95;6.35;;;;;;;-0.52;83.41;99329.97;2707153;26;20033;-79
2024/04/26 00:53:00;;;;;;;8.43;5.70;;;;;;;-0.56;83.28;99334.22;2705641;26;20004;-78
2024/04/26 00:54:16;;;;;;;7.88;6.63;;;;;;;-0.56;83.38;99329.06;2706731;26;20731;-79
2024/04/26 00:55:31;;;;;;;8.88;7.05;;;;;;;-0.54;83.53;99329.09;2689440;26;20075;-78
2024/04/26 00:56:44;;;;;;;6.78;5.97;;;;;;;-0.52;83.70;99327.41;2692549;26;20246;-80
2024/04/26 00:57:57;;;;;;;8.45;6.60;;;;;;;-0.50;83.77;99331.72;2696487;26;20350;-79
2024/04/26 00:59:13;;;;;;;6.30;5.70;;;;;;;-0.51;83.43;99322.31;2696435;26;20439;-80
2024/04/26 01:02:36;;;;;;;5.80;5.10;;;;;;;-0.53;83.35;99323.13;2701069;26;20274;-80
2024/04/26 01:03:49;;;;;;;7.60;5.97;;;;;;;-0.57;83.44;99324.78;2706901;26;20508;-79
2024/04/26 01:05:03;;;;;;;6.18;5.18;;;;;;;-0.59;83.47;99323.06;2696095;26;20097;-80
2024/04/26 01:06:17;;;;;;;7.20;5.10;;;;;;;-0.59;83.63;99321.34;2704063;26;20010;-79
2024/04/26 01:07:30;;;;;;;5.90;5.30;;;;;;;-0.57;83.70;99316.22;2715097;26;19996;-79
2024/04/26 01:08:44;;;;;;;6.95;5.82;;;;;;;-0.53;83.61;99312.88;2721340;26;20353;-79
2024/04/26 01:09:57;;;;;;;8.05;5.43;;;;;;;-0.51;83.78;99306.94;2706248;26;20015;-79
2024/04/26 01:11:12;;;;;;;5.75;5.18;;;;;;;-0.51;83.82;99306.09;2706589;26;20330;-79
2024/04/26 01:12:25;;;;;;;7.00;6.30;;;;;;;-0.49;83.99;99309.50;2707245;26;20003;-81
2024/04/26 01:13:38;;;;;;;7.47;5.35;;;;;;;-0.46;83.85;99314.72;2719342;26;20225;-79
2024/04/26 01:14:51;;;;;;;8.43;5.00;;;;;;;-0.46;84.01;99297.63;2694174;26;20012;-78
2024/04/26 01:16:05;;;;;;;5.97;5.38;;;;;;;-0.41;84.02;99307.94;2704149;26;20008;-79
2024/04/26 01:17:18;;;;;;;5.35;4.85;;;;;;;-0.36;83.97;99306.31;2696308;26;20000;-79
2024/04/26 01:18:32;;;;;;;6.25;5.60;;;;;;;-0.33;83.97;99306.34;2695324;26;20520;-79
2024/04/26 01:19:45;;;;;;;8.25;5.53;;;;;;;-0.31;83.90;99301.22;2707619;26;20410;-78
2024/04/26 01:20:59;;;;;;;9.35;5.80;;;;;;;-0.29;83.82;99304.66;2706672;26;20350;-79
2024/04/26 01:22:28;;;;;;;8.15;4.57;;;;;;;-0.28;83.80;99301.28;2696262;26;20044;-80
2024/04/26 01:23:41;;;;;;;7.63;5.40;;;;;;;-0.29;83.82;99295.28;2690669;26;20001;-79
2024/04/26 01:24:55;;;;;;;12.00;5.03;;;;;;;-0.26;84.03;99294.44;2695313;26;20234;-80
2024/04/26 01:26:08;;;;;;;11.70;5.45;;;;;;;-0.23;83.90;99297.94;2707863;26;20011;-79
2024/04/26 01:27:21;;;;;;;9.02;5.55;;;;;;;-0.19;84.01;99296.25;2708813;26;20073;-79
2024/04/26 01:28:35;;;;;;;6.95;6.10;;;;;;;-0.15;83.58;99292.91;2707607;26;20008;-79
2024/04/26 01:29:49;;;;;;;7.85;5.20;;;;;;;-0.10;83.97;99300.66;2706482;26;20011;-80
2024/04/26 01:31:02;;;;;;;7.88;5.13;;;;;;;-0.07;83.97;99301.53;2708720;26;20282;-81
2024/04/26 01:32:15;;;;;;;7.57;5.70;;;;;;;-0.06;83.70;99293.00;2715134;26;20031;-79
2024/04/26 01:33:28;;;;;;;6.75;4.85;;;;;;;-0.06;83.96;99292.16;2715399;26;20353;-80
2024/04/26 01:34:42;;;;;;;8.10;5.20;;;;;;;-0.10;83.74;99296.38;2708129;26;20448;-80
2024/04/26 01:35:55;;;;;;;9.98;5.00;;;;;;;-0.12;83.78;99297.22;2708185;26;20004;-80
2024/04/26 01:37:08;;;;;;;6.97;5.82;;;;;;;-0.14;84.29;99301.44;2708503;26;20004;-79
2024/04/26 01:38:21;;;;;;;8.57;5.30;;;;;;;-0.17;83.88;99297.16;2708359;26;19996;-80
2024/04/26 01:39:35;;;;;;;5.88;5.25;;;;;;;-0.17;83.77;99309.09;2706974;26;20012;-81
2024/04/26 01:40:48;;;;;;;7.15;5.53;;;;;;;-0.19;83.73;99292.84;2720742;26;20115;-79
2024/04/26 01:42:01;;;;;;;5.50;4.82;;;;;;;-0.18;83.57;99295.44;2709799;26;20000;-78
2024/04/26 01:43:15;;;;;;;6.50;5.20;;;;;;;-0.19;83.51;99293.69;2717721;26;20004;-78
2024/04/26 01:44:29;;;;;;;5.75;4.97;;;;;;;-0.19;83.44;99292.84;2704819;26;20039;-78
2024/04/26 01:45:42;;;;;;;5.70;5.20;;;;;;;-0.20;83.61;99298.81;2693359;26;20358;-81
2024/04/26 01:46:55;;;;;;;6.57;4.70;;;;;;;-0.24;83.45;99291.06;2720136;26;20015;-79
2024/04/26 01:48:08;;;;;;;6.38;5.82;;;;;;;-0.27;83.49;99288.47;2706604;26;20346;-79
2024/04/26 01:49:22;;;;;;;7.25;5.60;;;;;;;-0.29;83.47;99286.72;2714422;26;20522;-78
2024/04/26 01:50:36;;;;;;;5.88;4.28;;;;;;;-0.30;83.44;99295.25;2694762;26;20375;-79
2024/04/26 01:51:49;;;;;;;6.43;5.35;;;;;;;-0.30;83.60;99297.81;2683786;26;20047;-81
2024/04/26 01:53:02;;;;;;;7.32;6.38;;;;;;;-0.33;83.31;99293.53;2698504;26;20024;-79
2024/04/26 01:54:16;;;;;;;10.65;5.55;;;;;;;-0.34;83.50;99289.22;2706018;26;20013;-78
2024/04/26 01:55:29;;;;;;;6.30;5.68;;;;;;;-0.34;83.61;99290.94;2707320;26;20010;-79
2024/04/26 01:56:42;;;;;;;12.38;5.20;;;;;;;-0.35;nan;99286.66;2706221;26;20004;-79
2024/04/26 01:57:58;;;;;;;6.97;5.28;;;;;;;-0.36;83.34;99290.03;2709761;26;20344;-78
2024/04/26 01:59:11;;;;;;;6.28;5.68;;;;;;;-0.36;83.46;99295.16;2694961;26;20077;-79
2024/04/26 02:00:25;;;;;;;11.95;4.95;;;;;;;-0.35;83.59;99302.03;2695973;26;20593;-80
2024/04/26 02:01:38;;;;;;;11.68;5.22;;;;;;;-0.36;83.46;99298.63;2695364;26;20487;-78
2024/04/26 02:02:55;;;;;;;7.88;5.80;;;;;;;-0.36;83.53;99292.59;2707340;26;20015;-80
2024/04/26 02:04:08;;;;;;;6.20;5.63;;;;;;;-0.34;83.67;99285.81;2708488;26;20008;-79
2024/04/26 02:05:22;;;;;;;5.10;4.60;;;;;;;-0.32;83.41;99286.69;2706384;26;20211;-80
2024/04/26 02:06:35;;;;;;;7.45;6.47;;;;;;;-0.30;83.49;99279.88;2707575;26;20011;-81
2024/04/26 02:07:48;;;;;;;9.48;6.05;;;;;;;-0.27;83.32;99291.03;2707683;26;19996;-79
2024/04/26 02:09:02;;;;;;;7.07;5.55;;;;;;;-0.24;83.56;99285.94;2706235;26;20028;-80
2024/04/26 02:10:17;;;;;;;6.97;6.13;;;;;;;-0.22;83.48;99284.25;2707640;26;19996;-79
2024/04/26 02:11:35;;;;;;;9.43;5.28;;;;;;;-0.19;83.49;99278.31;2709370;26;19996;-79
2024/04/26 02:12:48;;;;;;;6.07;5.55;;;;;;;-0.18;83.39;99284.28;2708495;26;20319;-79
2024/04/26 02:14:01;;;;;;;9.52;5.80;;;;;;;-0.16;83.86;99278.34;2708917;26;20294;-82
2024/04/26 02:15:15;;;;;;;6.68;5.97;;;;;;;-0.15;83.33;99272.38;2708022;26;20403;-79
2024/04/26 02:16:28;;;;;;;6.72;5.90;;;;;;;-0.17;83.44;99263.81;2695562;26;19996;-80
2024/04/26 02:17:41;;;;;;;7.05;5.38;;;;;;;-0.16;83.47;99275.78;2707048;26;20011;-79
2024/04/26 02:18:57;;;;;;;7.55;5.03;;;;;;;-0.14;83.56;99266.41;2707899;26;19996;-80
2024/04/26 02:20:10;;;;;;;6.03;4.75;;;;;;;-0.12;83.68;99269.00;2707933;26;20004;-80
2024/04/26 02:21:23;;;;;;;6.63;4.88;;;;;;;-0.12;83.72;99264.72;2707973;26;20650;-82
2024/04/26 02:22:37;;;;;;;6.43;5.78;;;;;;;-0.11;83.69;99263.88;2708138;26;20011;-78
2024/04/26 02:23:50;;;;;;;5.47;4.57;;;;;;;-0.12;83.64;99264.72;2707655;26;19996;-81
2024/04/26 02:25:03;;;;;;;5.63;4.93;;;;;;;-0.12;83.58;99274.13;2706643;26;19996;-78
2024/04/26 02:26:20;;;;;;;9.02;5.35;;;;;;;-0.14;83.65;99276.66;2708127;26;20047;-78
2024/04/26 02:27:34;;;;;;;7.88;5.53;;;;;;;-0.16;83.77;99275.78;2707390;26;20464;-81
2024/04/26 02:28:47;;;;;;;6.60;5.60;;;;;;;-0.16;83.85;99277.50;2706873;26;20294;-78
2024/04/26 02:30:01;;;;;;;6.63;5.25;;;;;;;-0.15;83.89;99280.09;2706592;26;20016;-80
2024/04/26 02:31:16;;;;;;;7.22;5.82;;;;;;;-0.15;83.79;99274.94;2695973;26;20393;-79
2024/04/26 02:32:29;;;;;;;7.93;5.35;;;;;;;-0.12;83.84;99284.38;2706881;26;20004;-78
2024/04/26 02:33:42;;;;;;;9.07;5.53;;;;;;;-0.09;83.83;99284.41;2708560;26;20218;-80
2024/04/26 02:34:55;;;;;;;5.43;4.93;;;;;;;-0.06;83.94;99285.31;2707252;26;20000;-80
2024/04/26 02:36:09;;;;;;;10.43;5.93;;;;;;;-0.06;83.90;99287.88;2707692;26;20004;-79
2024/04/26 02:37:22;;;;;;;8.18;4.88;;;;;;;-0.06;83.60;99284.44;2707846;26;20038;-79
2024/04/26 02:38:40;;;;;;;8.30;5.07;;;;;;;-0.06;83.96;99272.47;2707663;26;20027;-79
2024/04/26 02:39:53;;;;;;;6.18;4.88;;;;;;;-0.03;83.84;99280.25;2721794;26;19996;-79
2024/04/26 02:41:09;;;;;;;8.07;6.43;;;;;;;-0.03;83.51;99276.78;2706671;26;20038;-79
2024/04/26 02:42:22;;;;;;;9.40;5.00;;;;;;;-0.03;83.41;99285.38;2706461;26;20471;-82
2024/04/26 02:43:35;;;;;;;5.28;4.80;;;;;;;-0.02;83.76;99274.25;2707099;26;20069;-79
2024/04/26 02:44:48;;;;;;;10.20;6.57;;;;;;;0.02;84.01;99274.28;2694760;26;20106;-79
2024/04/26 02:46:02;;;;;;;9.57;5.80;;;;;;;0.05;83.71;99272.59;2710501;26;20374;-80
2024/04/26 02:47:15;;;;;;;6.82;5.10;;;;;;;0.08;83.93;99275.22;2678147;26;20500;-79
2024/04/26 02:48:28;;;;;;;6.68;6.07;;;;;;;0.10;83.50;99272.66;2683981;26;20007;-81
2024/04/26 02:49:41;;;;;;;10.18;5.78;;;;;;;0.08;84.02;99287.16;2707580;26;20009;-80
2024/04/26 02:50:55;;;;;;;7.97;6.28;;;;;;;0.06;83.59;99283.75;2707942;26;20103;-80
2024/04/26 02:52:08;;;;;;;5.88;5.28;;;;;;;-0.02;83.71;99281.94;2689381;26;19997;-80
2024/04/26 02:53:21;;;;;;;5.85;5.25;;;;;;;-0.03;83.62;99280.25;2684426;26;20036;-80
2024/04/26 02:54:34;;;;;;;7.47;5.78;;;;;;;-0.04;83.64;99275.06;2707909;26;20441;-80
2024/04/26 02:55:47;;;;;;;7.78;6.50;;;;;;;-0.05;83.78;99279.34;2707290;26;20007;-80
2024/04/26 02:57:02;;;;;;;10.27;5.10;;;;;;;-0.04;83.83;99264.81;2692769;26;20040;-82
2024/04/26 02:58:16;;;;;;;10.90;6.13;;;;;;;-0.06;83.46;99267.34;2707241;26;19996;-80
2024/04/26 02:59:29;;;;;;;7.75;6.00;;;;;;;-0.03;83.87;99258.84;2695437;26;20457;-80
2024/04/26 03:00:42;;;;;;;7.22;6.03;;;;;;;-0.01;83.68;99257.16;2693618;26;20073;-79
2024/04/26 03:01:55;;;;;;;9.57;7.10;;;;;;;0.04;83.91;99254.66;2706671;26;20419;-79
2024/04/26 03:03:09;;;;;;;6.28;5.53;;;;;;;0.08;83.77;99253.81;2706254;26;20520;-81
2024/04/26 03:04:22;;;;;;;6.55;5.93;;;;;;;0.10;83.80;99259.84;2694736;26;20014;-78
2024/04/26 03:05:35;;;;;;;7.85;6.82;;;;;;;0.13;83.85;99260.75;2706443;26;20074;-78
2024/04/26 03:06:48;;;;;;;6.63;5.55;;;;;;;0.15;84.05;99261.59;2706030;26;19996;-79
2024/04/26 03:08:02;;;;;;;6.53;5.55;;;;;;;0.15;83.74;99261.59;2706481;26;20019;-79
2024/04/26 03:09:15;;;;;;;7.70;5.90;;;;;;;0.15;84.00;99268.44;2701521;26;20070;-80
2024/04/26 03:10:28;;;;;;;6.32;5.65;;;;;;;0.15;83.82;99279.56;2688205;26;20024;-79
2024/04/26 03:11:41;;;;;;;8.88;6.30;;;;;;;0.16;83.89;99267.63;2677684;26;20338;-79
2024/04/26 03:12:55;;;;;;;7.32;6.00;;;;;;;0.17;83.95;99271.91;2703043;26;19996;-82
2024/04/26 03:14:08;;;;;;;7.57;5.95;;;;;;;0.18;84.11;99278.72;2692376;26;20011;-77
2024/04/26 03:15:22;;;;;;;7.57;6.40;;;;;;;0.20;83.99;99266.78;2695392;26;20431;-80
2024/04/26 03:16:42;;;;;;;6.65;5.93;;;;;;;0.26;84.14;99271.13;2695257;26;19997;-79
2024/04/26 03:17:55;;;;;;;12.68;7.13;;;;;;;0.30;84.29;99276.31;2689329;26;20009;-80
2024/04/26 03:19:12;;;;;;;8.38;5.90;;;;;;;0.35;84.23;99269.53;2702719;26;20437;-79
2024/04/26 03:20:28;;;;;;;6.90;6.20;;;;;;;0.37;84.25;99269.53;2670837;26;20038;-80
2024/04/26 03:21:47;;;;;;;7.40;6.68;;;;;;;0.39;84.27;99268.72;2677756;26;20216;-79
2024/04/26 03:23:00;;;;;;;16.38;6.45;;;;;;;0.40;84.13;99261.88;2705550;26;20077;-78
2024/04/26 03:24:14;;;;;;;7.25;6.30;;;;;;;0.42;84.07;99263.59;2717464;26;20388;-79
2024/04/26 03:25:28;;;;;;;6.47;5.78;;;;;;;0.46;84.18;99269.63;2705709;26;20008;-79
2024/04/26 03:26:41;;;;;;;7.32;6.35;;;;;;;0.48;84.25;99256.81;2706438;26;19996;-79
2024/04/26 03:27:56;;;;;;;6.60;5.90;;;;;;;0.50;84.15;99270.53;2707127;26;20008;-79
2024/04/26 03:29:09;;;;;;;8.57;6.55;;;;;;;0.53;84.27;99262.84;2706938;26;20016;-79
2024/04/26 03:30:22;;;;;;;6.57;5.95;;;;;;;0.56;84.32;99268.00;2706235;26;20571;-79
2024/04/26 03:31:35;;;;;;;8.02;7.22;;;;;;;0.60;84.26;99269.78;2694953;26;20000;-79
2024/04/26 03:32:49;;;;;;;12.55;6.20;;;;;;;0.64;83.85;99268.94;2693946;26;20450;-78
2024/04/26 03:34:02;;;;;;;7.10;5.80;;;;;;;0.67;84.25;99268.97;2694075;26;19996;-79
2024/04/26 03:35:15;;;;;;;8.82;7.07;;;;;;;0.70;84.11;99269.00;2706814;26;20387;-80
2024/04/26 03:36:28;;;;;;;9.45;6.80;;;;;;;0.75;84.14;99271.59;2707044;26;20002;-80
2024/04/26 03:37:41;;;;;;;10.27;7.50;;;;;;;0.78;83.85;99266.50;2695948;26;20006;-79
2024/04/26 03:38:55;;;;;;;8.77;6.65;;;;;;;0.81;84.38;99262.25;2681724;26;20493;-78
2024/04/26 03:40:12;;;;;;;10.55;7.07;;;;;;;0.84;84.29;99262.25;2707271;26;20011;-77
2024/04/26 03:41:25;;;;;;;7.70;6.63;;;;;;;0.91;83.97;99262.34;2707700;26;20011;-78
2024/04/26 03:42:42;;;;;;;9.68;6.80;;;;;;;0.96;84.28;99265.81;2707859;26;20000;-78
2024/04/26 03:43:55;;;;;;;7.32;6.63;;;;;;;0.98;83.90;99262.41;2706716;26;20004;-78
2024/04/26 03:45:08;;;;;;;11.32;7.32;;;;;;;1.03;83.74;99262.41;2692707;26;20016;-77
2024/04/26 03:46:22;;;;;;;7.60;6.80;;;;;;;1.06;83.95;99258.16;2707331;26;20011;-78
2024/04/26 03:47:35;;;;;;;7.50;6.53;;;;;;;1.10;83.90;99259.03;2685934;26;20070;-78
2024/04/26 03:48:48;;;;;;;5.85;5.07;;;;;;;1.15;84.04;99259.09;2702157;26;20031;-77
2024/04/26 03:50:02;;;;;;;6.95;5.93;;;;;;;1.19;84.20;99261.69;2707385;26;20011;-78
2024/04/26 03:51:15;;;;;;;9.55;6.97;;;;;;;1.24;84.28;99260.00;2706661;26;20431;-78
2024/04/26 03:52:28;;;;;;;7.80;6.13;;;;;;;1.28;83.87;99261.72;2694396;26;20008;-78
2024/04/26 03:53:42;;;;;;;7.07;6.22;;;;;;;1.31;83.85;99259.19;2694952;26;20000;-78
2024/04/26 03:54:55;;;;;;;10.70;5.38;;;;;;;1.33;84.06;99256.63;2695496;26;20000;-77
2024/04/26 03:56:08;;;;;;;6.57;5.88;;;;;;;1.38;83.85;99256.66;2681236;26;20005;-78
2024/04/26 03:57:21;;;;;;;9.65;6.90;;;;;;;1.39;83.59;99254.09;2706696;26;20481;-79
2024/04/26 03:58:39;;;;;;;8.32;6.03;;;;;;;1.41;83.64;99254.09;2708089;26;20012;-78
2024/04/26 03:59:52;;;;;;;6.72;5.78;;;;;;;1.42;83.58;99253.25;2707613;26;20016;-78
2024/04/26 04:01:06;;;;;;;11.15;6.00;;;;;;;1.45;83.93;99251.56;2704925;26;20012;-77
2024/04/26 04:02:19;;;;;;;8.57;6.50;;;;;;;1.48;83.92;99254.16;2677770;26;19997;-77
2024/04/26 04:03:32;;;;;;;8.77;5.78;;;;;;;1.48;83.45;99255.88;2695990;26;20399;-77
2024/04/26 04:04:46;;;;;;;7.05;6.13;;;;;;;1.47;83.90;99265.28;2695566;26;20056;-78
2024/04/26 04:05:59;;;;;;;8.68;6.70;;;;;;;1.47;83.71;99254.13;2705583;26;20031;-77
2024/04/26 04:07:12;;;;;;;10.73;6.10;;;;;;;1.47;83.52;99260.16;2706742;26;20010;-78
2024/04/26 04:08:25;;;;;;;6.80;5.88;;;;;;;1.50;83.67;99255.03;2705334;26;20366;-77
2024/04/26 04:09:39;;;;;;;7.93;6.28;;;;;;;1.52;83.82;99260.16;2697503;26;20001;-78
2024/04/26 04:10:52;;;;;;;8.98;7.68;;;;;;;1.53;83.25;99267.03;2689276;26;20036;-79
2024/04/26 04:12:05;;;;;;;7.32;5.53;;;;;;;1.53;83.37;99264.47;2693824;26;20014;-79
2024/04/26 04:13:19;;;;;;;9.38;7.70;;;;;;;1.54;83.72;99268.75;2694907;26;20004;-79
2024/04/26 04:14:32;;;;;;;8.10;5.65;;;;;;;1.56;83.48;99263.63;2707441;26;20448;-78
2024/04/26 04:15:45;;;;;;;7.90;7.10;;;;;;;1.58;83.79;99267.06;2708358;26;20010;-78
2024/04/26 04:16:58;;;;;;;7.38;5.97;;;;;;;1.61;83.46;99269.66;2707709;26;20000;-78
2024/04/26 04:18:13;;;;;;;8.35;7.25;;;;;;;1.63;83.44;99260.25;2707899;26;20019;-77
2024/04/26 04:19:26;;;;;;;8.80;7.90;;;;;;;1.67;83.62;99267.94;2704652;26;20119;-78
2024/04/26 04:20:40;;;;;;;8.95;6.63;;;;;;;1.70;83.58;99273.13;2703386;26;20023;-78
2024/04/26 04:21:53;;;;;;;10.27;7.32;;;;;;;1.74;83.90;99269.72;2701895;26;20000;-78
2024/04/26 04:23:07;;;;;;;8.30;7.55;;;;;;;1.77;83.67;99265.44;2674509;26;20005;-78
2024/04/26 04:24:20;;;;;;;9.05;7.40;;;;;;;1.80;83.67;99258.59;2692295;26;20452;-79
2024/04/26 04:25:33;;;;;;;8.77;7.72;;;;;;;1.85;83.87;99258.59;2703911;26;20763;-78
2024/04/26 04:26:46;;;;;;;10.60;6.50;;;;;;;1.88;83.58;99246.59;2700645;26;20522;-80
2024/04/26 04:28:03;;;;;;;8.43;7.25;;;;;;;1.92;83.53;99245.78;2703703;26;20047;-81
2024/04/26 04:29:16;;;;;;;9.45;7.40;;;;;;;1.94;83.17;99241.50;2705337;26;20055;-77
2024/04/26 04:30:29;;;;;;;15.50;7.70;;;;;;;1.96;83.47;99234.66;2705920;26;20059;-78
2024/04/26 04:31:42;;;;;;;9.05;6.00;;;;;;;1.98;82.97;99237.22;2703269;26;20000;-83
2024/04/26 04:32:57;;;;;;;8.60;7.75;;;;;;;1.97;83.34;99235.50;2703215;26;20067;-77
2024/04/26 04:34:10;;;;;;;7.20;6.47;;;;;;;1.95;82.98;99238.06;2700305;26;19996;-78
2024/04/26 04:35:23;;;;;;;8.98;7.38;;;;;;;1.95;83.14;99237.22;2701665;26;20015;-78
2024/04/26 04:36:36;;;;;;;8.13;7.32;;;;;;;1.98;83.38;99242.34;2703962;26;20004;-80
2024/04/26 04:37:50;;;;;;;14.77;8.73;;;;;;;2.00;83.43;99245.81;2702050;26;20489;-77
2024/04/26 04:39:03;;;;;;;10.93;7.05;;;;;;;2.03;83.64;99250.94;2670943;26;20314;-78
2024/04/26 04:40:16;;;;;;;9.63;8.73;;;;;;;2.05;83.43;99251.81;2685189;26;20016;-77
2024/04/26 04:41:29;;;;;;;9.90;8.07;;;;;;;2.09;83.22;99250.09;2698729;26;20018;-78
2024/04/26 04:42:43;;;;;;;11.15;6.53;;;;;;;2.11;83.05;99248.41;2703430;26;20008;-79
2024/04/26 04:43:56;;;;;;;9.18;8.27;;;;;;;2.13;83.28;99252.69;2702275;26;20499;-77
2024/04/26 04:45:09;;;;;;;10.20;7.80;;;;;;;2.15;83.55;99245.84;2702129;26;20360;-78
2024/04/26 04:46:22;;;;;;;8.55;7.55;;;;;;;2.21;83.29;99236.44;2701815;26;20333;-77
2024/04/26 04:47:36;;;;;;;8.02;6.22;;;;;;;2.23;83.27;99238.16;2702086;26;20030;-80
2024/04/26 04:48:49;;;;;;;8.75;7.75;;;;;;;2.24;83.26;99242.44;2704686;26;20016;-79
2024/04/26 04:50:02;;;;;;;11.02;6.80;;;;;;;2.26;83.09;99242.44;2701429;26;20004;-78
2024/04/26 04:51:15;;;;;;;9.10;7.90;;;;;;;2.26;83.06;99238.16;2698651;26;20358;-78
2024/04/26 04:52:29;;;;;;;11.88;8.35;;;;;;;2.29;82.92;99239.88;2687295;26;20527;-77
2024/04/26 04:53:42;;;;;;;12.55;8.25;;;;;;;2.30;83.57;99239.03;2695618;26;20008;-78
2024/04/26 04:54:55;;;;;;;9.95;8.07;;;;;;;2.31;83.17;99239.03;2705707;26;20004;-79
2024/04/26 04:56:08;;;;;;;12.00;7.47;;;;;;;2.34;83.37;99240.75;2702650;26;20003;-83
2024/04/26 04:57:22;;;;;;;14.68;9.77;;;;;;;2.35;83.20;99245.91;2701767;26;20015;-78
2024/04/26 04:58:35;;;;;;;14.40;12.23;;;;;;;2.37;83.57;99241.59;2702461;26;20008;-80
2024/04/26 04:59:48;;;;;;;14.65;12.27;;;;;;;2.40;83.23;99245.88;2701910;26;19992;-78
2024/04/26 05:01:01;;;;;;;12.95;11.63;;;;;;;2.42;83.35;99233.03;2701362;26;20012;-78
2024/04/26 05:02:15;;;;;;;11.45;8.63;;;;;;;2.45;83.70;99243.34;2703384;26;20042;-78
2024/04/26 05:03:28;;;;;;;10.95;8.30;;;;;;;2.46;83.72;99245.91;2702972;26;20016;-78
2024/04/26 05:04:41;;;;;;;12.57;8.43;;;;;;;2.48;83.22;99251.06;2697379;26;20001;-81
2024/04/26 05:05:54;;;;;;;13.00;10.93;;;;;;;2.51;83.73;99249.38;2687953;26;24180;-78
2024/04/26 05:07:08;;;;;;;18.63;11.45;;;;;;;2.55;83.39;99255.38;2707129;26;20047;-79
2024/04/26 05:08:21;;;;;;;12.40;9.23;;;;;;;2.58;83.54;99256.25;2714008;26;20032;-81
2024/04/26 05:09:34;;;;;;;13.20;9.20;;;;;;;2.62;83.70;99259.66;2702515;26;20019;-79
2024/04/26 05:10:50;;;;;;;11.30;9.95;;;;;;;2.67;83.43;99268.25;2699201;26;19998;-78
2024/04/26 05:12:07;;;;;;;12.25;9.82;;;;;;;2.72;83.84;99268.28;2700520;26;20011;-78
2024/04/26 05:13:20;;;;;;;10.38;9.38;;;;;;;2.75;83.85;99276.00;2703076;26;20004;-82
2024/04/26 05:14:33;;;;;;;9.98;8.95;;;;;;;2.79;83.72;99273.44;2703226;26;20001;-79
2024/04/26 05:15:46;;;;;;;11.85;9.13;;;;;;;2.82;83.78;99277.72;2703224;26;20475;-78
2024/04/26 05:16:59;;;;;;;9.93;8.38;;;;;;;2.87;83.47;99283.75;2701251;26;20475;-81
2024/04/26 05:18:13;;;;;;;10.68;9.57;;;;;;;2.89;83.69;99279.47;2701916;26;20360;-78
2024/04/26 05:19:26;;;;;;;14.57;11.00;;;;;;;2.94;84.07;99277.72;2702308;26;21882;-82
2024/04/26 05:20:39;;;;;;;13.70;11.15;;;;;;;2.97;84.03;99282.91;2701659;26;20485;-78
2024/04/26 05:21:52;;;;;;;13.80;9.93;;;;;;;3.00;83.55;99279.47;2702205;26;20073;-80
2024/04/26 05:23:06;;;;;;;12.88;8.70;;;;;;;3.04;83.64;99270.84;2702380;26;20015;-79
2024/04/26 05:24:19;;;;;;;14.68;10.23;;;;;;;3.08;83.97;99272.56;2702194;26;20373;-78
2024/04/26 05:25:32;;;;;;;13.68;9.70;;;;;;;3.14;83.64;99276.88;2702225;26;20012;-78
2024/04/26 05:26:45;;;;;;;13.77;10.35;;;;;;;3.18;84.13;99271.72;2700974;26;19997;-77
2024/04/26 05:27:59;;;;;;;12.50;9.88;;;;;;;3.23;84.02;99272.56;2699604;26;20015;-78
2024/04/26 05:29:12;;;;;;;17.58;10.68;;;;;;;3.27;84.06;99273.41;2701420;26;20011;-79
2024/04/26 05:30:25;;;;;;;23.95;10.85;;;;;;;3.30;83.94;99281.13;2702753;26;20015;-78
2024/04/26 05:31:38;;;;;;;17.33;10.88;;;;;;;3.32;83.43;99282.00;2703102;26;20028;-80
2024/04/26 05:32:51;;;;;;;19.63;11.25;;;;;;;3.32;83.73;99276.84;2701303;26;20004;-78
2024/04/26 05:34:05;;;;;;;14.35;9.77;;;;;;;3.35;nan;99283.72;2702150;26;20004;-78
2024/04/26 05:35:18;;;;;;;11.32;8.93;;;;;;;3.39;83.36;99281.13;2701281;26;20012;-78
2024/04/26 05:36:31;;;;;;;12.68;9.80;;;;;;;3.44;83.44;99281.97;2701420;26;20008;-79
2024/04/26 05:37:45;;;;;;;11.05;9.77;;;;;;;3.48;83.21;99269.94;2701479;26;20007;-78
2024/04/26 05:38:58;;;;;;;15.98;9.45;;;;;;;3.55;83.69;99270.78;2702527;26;19997;-79
2024/04/26 05:40:11;;;;;;;9.77;8.30;;;;;;;3.60;83.66;99264.75;2700301;26;20404;-80
2024/04/26 05:41:25;;;;;;;11.30;9.40;;;;;;;3.64;83.03;99266.47;2701211;26;20584;-78
2024/04/26 05:42:38;;;;;;;10.63;8.13;;;;;;;3.67;83.05;99269.03;2701311;26;20011;-79
2024/04/26 05:43:51;;;;;;;10.23;7.82;;;;;;;3.74;83.13;99280.19;2701977;26;19996;-80
2024/04/26 05:45:05;;;;;;;10.80;8.25;;;;;;;3.80;83.32;99285.34;2701886;26;20329;-78
2024/04/26 05:46:18;;;;;;;11.63;7.78;;;;;;;3.87;82.92;99287.03;2701080;26;20338;-78
2024/04/26 05:47:31;;;;;;;13.43;9.20;;;;;;;3.94;82.90;99288.72;2701096;26;20039;-79
2024/04/26 05:48:44;;;;;;;10.05;8.10;;;;;;;4.01;83.22;99292.16;2698210;26;19996;-78